Latest Weather Observations for Pirlangimpi

IDD60901

Issued at 2:11 pm CST Thursday 26 May 2016 (issued every 10 minutes, with the page automatically refreshed every 10 minutes)

About weather observations | Map of Darwin area stations | Latest observations for Darwin area | Other Formats
Station Details ID: 014142 Name: PIRLANGIMPI AIRPORT Lat: -11.40 Lon: 130.42 Height: 18.3 m
Data from the previous 72 hours. | See also: Recent months at Pirlangimpi
Date/Time
CST
Tmp

°C
App
Tmp
°C
Dew
Point
°C
Rel
Hum
%
Delta-T

°C
Wind Press
QNH
hPa
Press
MSL
hPa
Rain
since
9 am
mm
Dir
 
Spd
km/h
Gust
km/h
Spd
kts
Gust
kts
26/02:00pm 33.1 37.3 23.1 55 6.9 W 6 13 3 7 1011.5 1011.4 0.0
26/01:30pm 32.9 37.0 23.0 56 6.8 W 6 9 3 5 1012.0 1011.9 0.0
26/01:00pm 31.9 35.6 22.6 58 6.4 SSW 7 13 4 7 1012.6 1012.5 0.0
26/12:30pm 30.7 33.6 21.8 59 6.0 SSW 9 13 5 7 1013.3 1013.2 0.0
26/12:00pm 31.7 35.8 23.0 60 6.0 SSW 6 11 3 6 1013.6 1013.5 0.0
26/11:30am 31.0 34.5 22.9 62 5.6 SSW 9 13 5 7 1014.0 1013.9 0.0
26/11:00am 30.3 34.4 23.2 65 4.9 SSW 7 11 4 6 1014.3 1014.2 0.0
26/10:30am 30.3 34.1 22.7 64 5.2 SSW 7 11 4 6 1014.5 1014.4 0.0
26/10:00am 30.4 35.0 23.1 65 5.0 SW 4 7 2 4 1014.6 1014.5 0.0
26/09:30am 29.8 35.1 23.7 70 4.2 S 2 6 1 3 1014.6 1014.5 0.0
26/09:00am 28.6 34.0 23.9 75 3.2 SE 2 4 1 2 1014.4 1014.3 0.0
26/08:30am 27.3 34.2 25.7 91 1.1 CALM 0 4 0 2 1014.1 1014.0 0.0
26/08:00am 24.4 30.1 23.7 96 0.5 CALM 0 4 0 2 1013.8 1013.7 0.0
26/07:30am 23.5 28.6 22.7 95 0.5 CALM 0 0 0 0 1013.5 1013.4 0.0
26/07:00am 23.6 28.8 22.8 95 0.5 CALM 0 0 0 0 1013.1 1013.0 0.0
26/06:30am 23.4 28.3 22.4 94 0.7 CALM 0 0 0 0 1012.8 1012.7 0.0
26/06:00am 23.3 28.1 22.1 93 0.8 CALM 0 0 0 0 1012.4 1012.3 0.0
26/05:30am 23.5 28.0 22.3 93 0.8 ENE 2 4 1 2 1012.1 1012.0 0.0
26/05:00am 23.9 29.1 22.9 94 0.7 CALM 0 0 0 0 1012.2 1012.1 0.0
26/04:30am 24.1 29.4 23.1 94 0.7 CALM 0 0 0 0 1012.0 1011.9 0.0
26/04:00am 23.9 29.0 22.7 93 0.8 CALM 0 0 0 0 1012.0 1011.9 0.0
26/03:30am 24.1 28.8 22.7 92 0.9 SE 2 4 1 2 1012.0 1011.9 0.0
26/03:00am 24.1 28.9 22.9 93 0.8 ENE 2 2 1 1 1012.2 1012.1 0.0
26/02:30am 24.0 29.1 22.6 92 0.9 CALM 0 2 0 1 1012.5 1012.4 0.0
26/02:00am 24.3 29.4 22.7 91 1.1 CALM 0 0 0 0 1012.5 1012.4 0.0
26/01:30am 24.4 29.5 22.7 90 1.1 CALM 0 0 0 0 1012.5 1012.4 0.0
26/01:00am 24.5 29.3 22.9 91 1.1 NE 2 4 1 2 1012.6 1012.5 0.0
26/12:30am 24.8 29.6 22.9 89 1.3 NE 2 6 1 3 1012.9 1012.8 0.0
26/12:00am 24.5 29.3 22.8 90 1.1 NE 2 4 1 2 1012.9 1012.8 0.0
 
Date/Time
CST
Tmp

°C
App
Tmp
°C
Dew
Point
°C
Rel
Hum
%
Delta-T

°C
Wind Press
QNH
hPa
Press
MSL
hPa
Rain
since
9 am
mm
Dir
 
Spd
km/h
Gust
km/h
Spd
kts
Gust
kts
25/11:30pm 24.7 29.5 22.9 90 1.2 NE 2 4 1 2 1012.9 1012.8 0.0
25/11:00pm 25.1 30.5 23.2 89 1.3 CALM 0 2 0 1 1013.1 1013.0 0.0
25/10:30pm 25.6 31.0 23.3 87 1.6 CALM 0 0 0 0 1013.0 1012.9 0.0
25/10:00pm 25.8 30.5 23.3 86 1.7 NE 4 4 2 2 1013.0 1012.9 0.0
25/09:30pm 26.7 31.9 23.6 83 2.1 ESE 2 6 1 3 1012.9 1012.8 0.0
25/09:00pm 27.3 31.8 23.7 81 2.5 ESE 6 9 3 5 1012.6 1012.5 0.0
25/08:30pm 27.8 33.3 23.4 77 3.0 CALM 0 0 0 0 1012.4 1012.3 0.0
25/08:00pm 27.9 33.5 23.5 77 3.0 CALM 0 0 0 0 1012.0 1011.9 0.0
25/07:30pm 28.6 34.2 23.5 74 3.5 CALM 0 0 0 0 1011.7 1011.6 0.0
25/07:00pm 28.9 34.2 23.1 71 4.0 CALM 0 0 0 0 1011.4 1011.3 0.0
25/06:30pm 29.3 34.7 23.3 70 4.1 CALM 0 0 0 0 1011.3 1011.2 0.0
25/06:00pm 30.0 34.6 23.2 67 4.7 N 4 9 2 5 1011.0 1010.9 0.0
25/05:30pm 30.5 35.1 23.2 65 5.0 NW 4 9 2 5 1010.7 1010.6 0.0
25/05:00pm 31.3 34.8 22.9 61 5.8 NW 9 17 5 9 1010.1 1010.0 0.0
25/04:30pm 31.4 35.5 23.2 61 5.7 NW 7 13 4 7 1009.9 1009.8 0.0
25/04:00pm 31.2 35.1 23.6 64 5.3 NW 9 17 5 9 1010.1 1010.0 0.0
25/03:30pm 32.3 36.6 24.9 65 5.2 NW 11 20 6 11 1009.9 1009.8 0.0
25/03:00pm 32.0 36.5 24.6 65 5.2 NW 9 17 5 9 1009.9 1009.8 0.0
25/02:30pm 32.5 37.1 24.8 64 5.4 NNW 9 17 5 9 1010.3 1010.2 0.0
25/02:00pm 31.5 35.4 23.6 63 5.5 WNW 9 15 5 8 1010.6 1010.5 0.0
25/01:30pm 32.0 35.8 22.4 57 6.6 NW 6 11 3 6 1011.1 1011.0 0.0
25/01:00pm 32.0 36.5 23.0 59 6.2 WNW 4 7 2 4 1011.5 1011.4 0.0
25/12:30pm 33.1 36.8 22.2 52 7.4 NNE 6 7 3 4 1011.9 1011.8 0.0
25/12:00pm 33.1 37.5 22.8 54 7.1 NE 4 9 2 5 1012.5 1012.4 0.0
25/11:30am 30.6 35.1 23.0 64 5.2 WSW 4 7 2 4 1012.7 1012.6 0.0
25/11:00am 29.9 33.8 22.9 66 4.8 SSW 7 9 4 5 1013.0 1012.9 0.0
25/10:30am 30.1 33.9 23.5 67 4.6 SW 9 13 5 7 1013.2 1013.1 0.0
25/10:00am 29.5 33.2 23.2 69 4.3 SSW 9 11 5 6 1013.1 1013.0 0.0
25/09:30am 28.8 33.9 24.6 78 2.9 SSW 6 11 3 6 1013.2 1013.1 0.0
25/09:00am 28.0 33.2 24.2 80 2.6 SSE 4 6 2 3 1013.2 1013.1 0.0
25/08:30am 26.9 32.8 24.7 88 1.5 SE 2 4 1 2 1013.0 1012.9 0.0
25/08:00am 25.6 32.0 24.9 96 0.5 CALM 0 0 0 0 1012.8 1012.7 0.0
25/07:30am 24.2 29.6 23.3 95 0.6 CALM 0 0 0 0 1012.7 1012.6 0.0
25/07:00am 23.6 28.7 22.6 94 0.7 CALM 0 2 0 1 1012.3 1012.2 0.0
25/06:30am 23.9 28.8 23.0 95 0.6 E 2 2 1 1 1012.1 1012.0 0.0
25/06:00am 23.6 28.3 22.6 94 0.7 ENE 2 4 1 2 1011.7 1011.6 0.0
25/05:30am 24.0 28.9 23.1 95 0.6 NE 2 4 1 2 1011.4 1011.3 0.0
25/05:00am 24.0 29.3 23.0 94 0.7 CALM 0 0 0 0 1011.2 1011.1 0.0
25/04:30am 24.0 29.3 23.0 94 0.7 CALM 0 0 0 0 1011.2 1011.1 0.0
25/04:00am 24.2 29.6 23.3 95 0.6 CALM 0 0 0 0 1011.3 1011.2 0.0
25/03:30am 24.1 29.4 23.1 94 0.7 CALM 0 0 0 0 1011.4 1011.3 0.0
25/03:00am 24.1 29.3 22.9 93 0.8 CALM 0 2 0 1 1011.6 1011.5 0.0
25/02:30am 24.2 29.2 23.2 94 0.7 ENE 2 6 1 3 1011.9 1011.8 0.0
25/02:00am 24.1 29.4 23.1 94 0.7 CALM 0 2 0 1 1012.0 1011.9 0.0
25/01:30am 24.2 28.7 23.0 93 0.8 NE 4 6 2 3 1012.3 1012.2 0.0
25/01:00am 24.4 29.4 23.2 93 0.8 NE 2 4 1 2 1012.3 1012.2 0.0
25/12:30am 24.7 30.0 23.1 91 1.1 CALM 0 0 0 0 1012.3 1012.2 0.0
25/12:00am 24.8 30.1 23.0 90 1.2 CALM 0 0 0 0 1012.5 1012.4 0.0
 
Date/Time
CST
Tmp

°C
App
Tmp
°C
Dew
Point
°C
Rel
Hum
%
Delta-T

°C
Wind Press
QNH
hPa
Press
MSL
hPa
Rain
since
9 am
mm
Dir
 
Spd
km/h
Gust
km/h
Spd
kts
Gust
kts
24/11:30pm 24.8 29.4 23.2 91 1.1 NE 4 4 2 2 1012.9 1012.8 0.0
24/11:00pm 25.1 30.5 23.2 89 1.3 CALM 0 0 0 0 1012.8 1012.7 0.0
24/10:30pm 25.6 31.3 23.7 89 1.3 CALM 0 0 0 0 1012.8 1012.7 0.0
24/10:00pm 26.0 31.7 23.7 87 1.6 CALM 0 0 0 0 1012.6 1012.5 0.0
24/09:30pm 26.4 32.1 23.7 85 1.9 CALM 0 0 0 0 1012.6 1012.5 0.0
24/09:00pm 27.3 32.6 23.7 81 2.5 ESE 2 2 1 1 1012.4 1012.3 0.0
24/08:30pm 28.0 33.2 24.2 80 2.6 SE 4 6 2 3 1012.2 1012.1 0.0
24/08:00pm 28.3 33.7 24.5 80 2.6 SE 4 6 2 3 1011.7 1011.6 0.0
24/07:30pm 28.4 33.5 24.6 80 2.6 SSE 6 7 3 4 1011.3 1011.2 0.0
24/07:00pm 29.1 34.2 24.0 74 3.5 WNW 4 7 2 4 1011.1 1011.0 0.0
24/06:30pm 29.3 34.2 23.7 72 3.9 W 4 6 2 3 1010.9 1010.8 0.0
24/06:00pm 29.7 35.3 24.3 73 3.8 NW 2 6 1 3 1010.5 1010.4 0.0
24/05:30pm 30.0 35.2 24.2 71 4.0 WNW 4 6 2 3 1010.2 1010.1 0.0
24/05:00pm 30.9 36.2 24.3 68 4.6 WNW 4 9 2 5 1010.0 1009.9 0.0
24/04:30pm 31.5 36.2 23.9 64 5.3 WNW 6 7 3 4 1009.9 1009.8 0.0
24/04:00pm 31.3 36.4 24.7 68 4.6 NNW 6 11 3 6 1010.1 1010.0 0.0
24/03:30pm 29.7 34.6 23.6 69 4.2 NNW 4 6 2 3 1010.4 1010.3 0.0
24/03:00pm 33.1 37.5 22.8 54 7.1 NNW 4 9 2 5 1010.6 1010.5 0.0
24/02:30pm 31.9 35.6 22.3 56 6.6 WNW 6 9 3 5 1010.8 1010.7 0.0
24/02:00pm 31.2 36.3 23.3 63 5.4 SE 2 6 1 3 1011.3 1011.2 0.0
24/01:30pm 30.1 34.8 24.3 71 4.0 WNW 7 13 4 7 1011.8 1011.7 0.0
24/01:00pm 31.1 35.6 23.7 64 5.1 NW 6 11 3 6 1012.0 1011.9 0.0
24/12:30pm 31.4 36.1 24.0 65 5.2 WNW 6 11 3 6 1012.3 1012.2 0.0
24/12:00pm 32.3 37.4 24.1 62 5.7 NNW 4 9 2 5 1012.7 1012.6 0.0
24/11:30am 30.3 35.6 23.7 68 4.6 WNW 2 2 1 1 1013.3 1013.2 0.0
24/11:00am 29.6 35.4 24.0 72 3.9 CALM 0 2 0 1 1013.7 1013.6 0.0
24/10:30am 29.7 34.5 24.1 72 3.9 SW 6 7 3 4 1013.8 1013.7 0.0
24/10:00am 30.3 35.8 24.0 69 4.4 NW 2 6 1 3 1013.8 1013.7 0.0
24/09:30am 30.4 36.4 24.8 72 3.9 NNE 2 4 1 2 1013.7 1013.6 0.0
24/09:00am 29.6 35.5 25.4 78 3.0 ENE 4 7 2 4 1013.7 1013.6 0.0
24/08:30am 27.9 33.4 25.3 86 1.8 E 6 9 3 5 1013.4 1013.3 0.0
24/08:00am 25.8 31.8 24.8 94 0.7 ENE 2 4 1 2 1013.0 1012.9 0.0
24/07:30am 24.8 30.2 23.8 94 0.7 ENE 2 2 1 1 1012.6 1012.5 0.0
24/07:00am 24.6 29.5 23.7 95 0.6 NE 4 6 2 3 1012.4 1012.3 0.0
24/06:30am 24.4 29.9 23.4 94 0.7 CALM 0 2 0 1 1012.3 1012.2 0.0
24/06:00am 24.4 29.5 23.4 94 0.7 NE 2 4 1 2 1012.0 1011.9 0.0
24/05:30am 24.5 29.9 23.3 93 0.8 CALM 0 0 0 0 1011.8 1011.7 0.0
24/05:00am 24.6 30.2 23.6 94 0.7 CALM 0 0 0 0 1011.8 1011.7 0.0
24/04:30am 24.9 30.6 23.7 93 0.8 CALM 0 0 0 0 1011.7 1011.6 0.0
24/04:00am 24.8 30.0 23.6 93 0.8 ENE 2 2 1 1 1011.6 1011.5 0.0
24/03:30am 24.8 30.4 23.6 93 0.8 CALM 0 4 0 2 1011.6 1011.5 0.0
24/03:00am 25.0 30.7 23.8 93 0.8 CALM 0 0 0 0 1011.6 1011.5 0.0
24/02:30am 25.2 30.9 23.8 92 1.0 CALM 0 0 0 0 1012.0 1011.9 0.0
24/02:00am 25.4 30.6 23.6 90 1.2 SE 2 2 1 1 1012.1 1012.0 0.0
24/01:30am 25.8 31.3 24.0 90 1.2 N 2 6 1 3 1012.3 1012.2 0.0
24/01:00am 25.8 31.0 24.2 91 1.1 N 4 7 2 4 1012.6 1012.5 0.0
24/12:30am 25.7 30.8 24.1 91 1.1 N 4 7 2 4 1012.7 1012.6 0.0
24/12:00am 25.8 31.0 24.2 91 1.1 N 4 6 2 3 1012.7 1012.6 0.0
 
Date/Time
CST
Tmp

°C
App
Tmp
°C
Dew
Point
°C
Rel
Hum
%
Delta-T

°C
Wind Press
QNH
hPa
Press
MSL
hPa
Rain
since
9 am
mm
Dir
 
Spd
km/h
Gust
km/h
Spd
kts
Gust
kts
23/11:30pm 25.6 30.9 24.4 93 0.8 N 4 7 2 4 1012.7 1012.6 0.0
23/11:00pm 25.5 31.0 24.1 92 1.0 N 2 4 1 2 1012.7 1012.6 0.0
23/10:30pm 25.9 31.5 24.3 91 1.1 N 2 6 1 3 1012.7 1012.6 0.0
23/10:00pm 26.2 31.4 24.2 89 1.4 N 4 4 2 2 1012.4 1012.3 0.0
23/09:30pm 26.4 31.7 24.4 89 1.4 N 4 6 2 3 1012.4 1012.3 0.0
23/09:00pm 26.5 32.1 24.3 88 1.5 NNE 2 6 1 3 1012.2 1012.1 0.0
23/08:30pm 27.1 32.9 24.6 86 1.7 N 2 6 1 3 1011.7 1011.6 0.0
23/08:00pm 27.4 33.2 24.5 84 2.0 N 2 4 1 2 1011.3 1011.2 0.0
23/07:30pm 28.0 33.5 24.6 82 2.4 NNE 4 7 2 4 1010.9 1010.8 0.0
23/07:00pm 28.3 34.2 24.7 81 2.5 NNE 2 6 1 3 1010.8 1010.7 0.0
23/06:30pm 28.8 34.1 24.4 77 3.1 N 4 6 2 3 1010.5 1010.4 0.0
23/06:00pm 29.8 35.4 24.9 75 3.4 N 4 6 2 3 1010.2 1010.1 0.0
23/05:30pm 30.2 35.2 24.8 73 3.8 NNW 7 11 4 6 1009.9 1009.8 0.0
23/05:00pm 31.1 36.5 25.4 71 4.0 NNW 7 13 4 7 1009.5 1009.4 0.0
23/04:30pm 32.0 37.0 24.8 65 5.1 NNW 7 15 4 8 1009.2 1009.1 0.0
23/04:00pm 32.1 37.0 24.4 63 5.4 NW 6 11 3 6 1009.1 1009.0 0.0
23/03:30pm 33.0 35.3 22.1 52 7.4 SSW 13 15 7 8 1009.0 1008.9 0.0
23/03:00pm 33.4 36.9 22.8 53 7.3 SW 9 15 5 8 1009.2 1009.1 0.0
23/02:30pm 33.3 37.0 23.3 55 6.9 SSW 9 20 5 11 1009.4 1009.3 0.0

Latest Capital City Observations: Canberra | Sydney | Melbourne | Brisbane | Adelaide | Perth | Hobart | Darwin

Other Formats:

Comma delimited format used in spreadsheet applications
http://www.bom.gov.au/fwo/IDD60901/IDD60901.94119.axf

JavaScript Object Notation format (JSON) in row-major order
http://www.bom.gov.au/fwo/IDD60901/IDD60901.94119.json